Time;durP1;ratioP1;P1;durP2;ratioP2;P2;SDS_P1;SDS_P2;PMS_P1;PMS_P2;Temp;Humidity;BMP_temperature;BMP_pressure;BME280_temperature;BME280_humidity;BME280_pressure;Samples;Min_cycle;Max_cycle;Signal;HPM_P1;HPM_P2
2021/11/10 00:02:09;;;;;;;4.65;2.22;;;9.60;99.90;;;;;;5065862;28;20482;-84
2021/11/10 00:04:35;;;;;;;3.03;2.45;;;9.60;99.90;;;;;;5073233;28;20127;-81
2021/11/10 00:07:01;;;;;;;2.70;2.13;;;9.60;99.90;;;;;;5090100;28;20036;-83
2021/11/10 00:09:27;;;;;;;3.40;2.08;;;9.60;99.90;;;;;;5081218;28;20044;-83
2021/11/10 00:11:54;;;;;;;5.28;2.38;;;9.50;99.90;;;;;;5086474;28;20497;-83
2021/11/10 00:14:20;;;;;;;5.40;2.40;;;9.50;99.90;;;;;;5089677;28;20043;-83
2021/11/10 00:16:46;;;;;;;3.95;2.72;;;9.50;99.90;;;;;;5082458;28;20055;-83
2021/11/10 00:19:12;;;;;;;2.58;2.38;;;9.50;99.90;;;;;;5091285;28;20043;-85
2021/11/10 00:21:38;;;;;;;6.28;3.53;;;9.50;99.90;;;;;;5089911;28;20067;-82
2021/11/10 00:24:04;;;;;;;6.07;3.33;;;9.50;99.90;;;;;;5087002;28;20051;-81
2021/11/10 00:26:30;;;;;;;;;;;9.50;99.90;;;;;;5084648;28;20044;-87
2021/11/10 00:28:56;;;;;;;12.70;4.20;;;9.50;99.90;;;;;;5088032;28;19916;-83
2021/11/10 00:31:21;;;;;;;;;;;9.40;99.90;;;;;;5089932;28;20411;-82
2021/11/10 00:33:49;;;;;;;11.23;4.32;;;9.40;99.90;;;;;;5064328;28;19942;-80
2021/11/10 00:36:15;;;;;;;13.20;3.08;;;9.40;99.90;;;;;;5095574;28;20051;-82
2021/11/10 00:38:41;;;;;;;13.15;4.15;;;9.40;99.90;;;;;;5074074;28;20471;-82
2021/11/10 00:41:07;;;;;;;;;;;9.40;99.90;;;;;;5090197;28;20040;-80
2021/11/10 00:43:34;;;;;;;8.95;3.00;;;9.40;99.90;;;;;;5088110;28;20284;-80
2021/11/10 00:46:00;;;;;;;11.82;4.22;;;9.40;99.90;;;;;;5089863;28;20063;-80
2021/11/10 00:48:26;;;;;;;3.63;2.63;;;9.30;99.90;;;;;;5089218;28;20036;-82
2021/11/10 00:50:52;;;;;;;4.85;3.13;;;9.30;99.90;;;;;;5089358;28;20103;-81
2021/11/10 00:53:18;;;;;;;;;;;9.30;99.90;;;;;;5072079;28;20115;-80
2021/11/10 00:55:44;;;;;;;3.17;2.88;;;9.30;99.90;;;;;;5090373;28;19955;-80
2021/11/10 00:58:10;;;;;;;;;;;9.30;99.90;;;;;;5060769;28;20081;-81
2021/11/10 01:00:37;;;;;;;2.53;2.28;;;9.30;99.90;;;;;;5090085;28;20011;-83
2021/11/10 01:03:07;;;;;;;14.63;3.25;;;9.30;99.90;;;;;;5060980;28;20118;-83
2021/11/10 01:05:34;;;;;;;9.20;4.57;;;9.20;99.90;;;;;;5089385;28;20039;-83
2021/11/10 01:08:00;;;;;;;7.07;2.45;;;9.20;99.90;;;;;;5080626;28;20033;-83
2021/11/10 01:10:27;;;;;;;5.97;2.65;;;9.20;99.90;;;;;;5067521;28;20047;-80
2021/11/10 01:12:52;;;;;;;8.15;3.80;;;9.20;99.90;;;;;;5083360;28;20039;-80
2021/11/10 01:15:19;;;;;;;7.65;4.07;;;9.10;99.90;;;;;;5063749;28;20040;-80
2021/11/10 01:17:45;;;;;;;4.80;3.28;;;9.10;99.90;;;;;;5083323;28;20489;-80
2021/11/10 01:20:12;;;;;;;4.00;3.20;;;9.10;99.90;;;;;;5077874;28;20121;-80
2021/11/10 01:22:38;;;;;;;3.78;3.17;;;9.10;99.90;;;;;;5082814;28;20061;-80
2021/11/10 01:25:06;;;;;;;4.28;2.75;;;9.00;99.90;;;;;;5076698;28;20138;-81
2021/11/10 01:27:33;;;;;;;4.00;3.28;;;9.00;99.90;;;;;;5072030;28;20101;-83
2021/11/10 01:29:59;;;;;;;5.30;2.75;;;9.00;99.90;;;;;;5095767;28;20075;-83
2021/11/10 01:32:25;;;;;;;3.13;2.40;;;9.00;99.90;;;;;;5093943;28;20040;-79
2021/11/10 01:34:51;;;;;;;3.00;2.70;;;9.00;99.90;;;;;;5093101;28;20071;-82
2021/11/10 01:37:17;;;;;;;4.05;2.85;;;9.00;99.90;;;;;;5096856;28;20091;-83
2021/11/10 01:39:42;;;;;;;2.10;1.95;;;8.90;99.90;;;;;;5073315;28;20098;-80
2021/11/10 01:42:09;;;;;;;12.65;4.00;;;8.90;99.90;;;;;;5078803;28;20493;-80
2021/11/10 01:44:38;;;;;;;6.95;3.17;;;8.90;99.90;;;;;;5083390;28;20060;-82
2021/11/10 01:47:08;;;;;;;4.43;3.13;;;8.90;99.90;;;;;;5089324;28;20127;-81
2021/11/10 01:49:35;;;;;;;10.18;4.57;;;8.90;99.90;;;;;;5092047;28;20569;-82
2021/11/10 01:52:02;;;;;;;6.78;4.07;;;8.90;99.90;;;;;;5092192;28;20548;-81
2021/11/10 01:54:30;;;;;;;4.30;2.90;;;8.90;99.90;;;;;;5071550;28;20111;-82
2021/11/10 01:56:57;;;;;;;5.15;2.92;;;8.80;99.90;;;;;;5072214;28;20090;-82
2021/11/10 01:59:35;;;;;;;6.97;4.25;;;8.80;99.90;;;;;;5073489;28;20423;-80
2021/11/10 02:02:04;;;;;;;12.57;2.95;;;8.80;99.90;;;;;;5061963;28;20047;-81
2021/11/10 02:04:31;;;;;;;10.57;4.05;;;8.80;99.90;;;;;;5072781;28;20489;-79
2021/11/10 02:06:58;;;;;;;5.25;2.67;;;8.80;99.90;;;;;;5092553;28;20097;-82
2021/11/10 02:09:24;;;;;;;10.55;5.07;;;8.80;99.90;;;;;;5091385;28;20454;-82
2021/11/10 02:11:52;;;;;;;5.35;2.80;;;8.80;99.90;;;;;;5090874;28;20032;-82
2021/11/10 02:14:20;;;;;;;10.70;3.60;;;8.90;99.90;;;;;;5073786;28;20047;-84
2021/11/10 02:16:46;;;;;;;13.93;3.85;;;8.80;99.90;;;;;;5073329;28;20040;-81
2021/11/10 02:19:14;;;;;;;8.85;3.72;;;8.80;99.90;;;;;;5069212;28;20047;-83
2021/11/10 02:21:54;;;;;;;15.43;4.57;;;8.80;99.90;;;;;;5071362;28;20044;-80
2021/11/10 02:24:23;;;;;;;9.80;3.38;;;8.80;99.90;;;;;;5086687;28;20140;-81
2021/11/10 02:26:49;;;;;;;6.00;3.97;;;8.80;99.90;;;;;;5098659;28;20044;-79
2021/11/10 02:29:17;;;;;;;6.03;4.00;;;8.70;99.90;;;;;;5089461;28;20081;-79
2021/11/10 02:31:44;;;;;;;5.47;4.40;;;8.70;99.90;;;;;;5092952;28;20040;-81
2021/11/10 02:34:10;;;;;;;4.57;4.15;;;8.80;99.90;;;;;;5057817;28;20504;-79
2021/11/10 02:36:36;;;;;;;11.65;4.57;;;8.70;99.90;;;;;;5054708;28;20072;-79
2021/11/10 02:39:09;;;;;;;12.68;4.05;;;8.70;99.90;;;;;;5077128;28;20081;-78
2021/11/10 02:41:37;;;;;;;13.07;5.32;;;8.70;99.90;;;;;;5072126;28;20039;-82
2021/11/10 02:44:05;;;;;;;7.10;3.90;;;8.70;99.90;;;;;;5088348;28;20139;-81
2021/11/10 02:46:35;;;;;;;7.13;3.75;;;8.70;99.90;;;;;;5084620;28;20044;-81
2021/11/10 02:49:01;;;;;;;5.85;4.03;;;8.70;99.90;;;;;;5052247;28;20171;-81
2021/11/10 02:51:27;;;;;;;;;;;8.70;99.90;;;;;;5091037;28;20065;-81
2021/11/10 02:53:53;;;;;;;15.77;5.22;;;8.80;99.90;;;;;;5091367;28;19928;-81
2021/11/10 02:56:18;;;;;;;9.55;4.32;;;8.80;99.90;;;;;;5090044;28;20492;-83
2021/11/10 02:58:44;;;;;;;10.27;4.53;;;8.80;99.90;;;;;;5089611;28;20050;-80
2021/11/10 03:01:10;;;;;;;8.70;4.90;;;8.80;99.90;;;;;;5083175;28;20067;-83
2021/11/10 03:03:36;;;;;;;5.03;3.58;;;8.80;99.90;;;;;;5087002;28;20036;-84
2021/11/10 03:06:03;;;;;;;4.07;3.40;;;8.80;99.90;;;;;;5082336;28;20040;-81
2021/11/10 03:08:29;;;;;;;10.77;3.90;;;8.80;99.90;;;;;;5090118;28;20078;-80
2021/11/10 03:10:56;;;;;;;13.90;4.65;;;8.80;99.90;;;;;;5086522;28;20493;-81
2021/11/10 03:13:21;;;;;;;11.10;5.85;;;8.80;99.90;;;;;;5088687;28;20100;-84
2021/11/10 03:15:47;;;;;;;10.95;4.53;;;8.80;99.90;;;;;;5089949;28;20122;-82
2021/11/10 03:18:14;;;;;;;8.00;5.35;;;8.80;99.90;;;;;;5090945;28;20036;-81
2021/11/10 03:20:39;;;;;;;;;;;8.80;99.90;;;;;;5072490;28;20051;-80
2021/11/10 03:23:06;;;;;;;8.70;4.30;;;8.80;99.90;;;;;;5078404;28;20301;-83
2021/11/10 03:25:33;;;;;;;9.95;3.95;;;8.80;99.90;;;;;;5091150;28;20082;-80
2021/11/10 03:27:59;;;;;;;16.35;4.28;;;8.80;99.90;;;;;;5052644;28;20166;-82
2021/11/10 03:30:25;;;;;;;11.63;4.68;;;8.80;99.90;;;;;;5062639;28;20115;-79
2021/11/10 03:32:51;;;;;;;5.20;3.75;;;8.80;99.90;;;;;;5091930;28;20036;-80
2021/11/10 03:35:19;;;;;;;12.75;6.13;;;8.80;99.90;;;;;;5078946;28;20036;-80
2021/11/10 03:37:45;;;;;;;7.28;4.65;;;8.80;99.90;;;;;;5091171;28;20059;-83
2021/11/10 03:40:12;;;;;;;8.63;4.60;;;8.80;99.90;;;;;;5090876;28;20048;-82
2021/11/10 03:42:38;;;;;;;6.28;3.88;;;8.80;99.90;;;;;;5061064;28;20127;-82
2021/11/10 03:45:05;;;;;;;5.88;3.78;;;8.80;99.90;;;;;;5088215;28;20190;-81
2021/11/10 03:47:30;;;;;;;6.38;5.10;;;8.80;99.90;;;;;;5073124;28;20047;-80
2021/11/10 03:49:56;;;;;;;6.28;3.35;;;8.80;99.90;;;;;;5087217;28;20389;-83
2021/11/10 03:52:22;;;;;;;5.05;3.70;;;8.80;99.90;;;;;;5089751;28;20135;-83
2021/11/10 03:54:48;;;;;;;9.68;4.40;;;8.90;99.90;;;;;;5062260;28;20032;-82
2021/11/10 03:57:14;;;;;;;12.40;5.32;;;8.90;99.90;;;;;;5070456;28;20058;-83
2021/11/10 03:59:40;;;;;;;6.45;4.47;;;8.90;99.90;;;;;;5081475;28;20044;-84
2021/11/10 04:02:07;;;;;;;;;;;8.90;99.90;;;;;;5090116;28;20036;-84
2021/11/10 04:04:32;;;;;;;9.95;4.93;;;8.90;99.90;;;;;;5089607;28;19922;-82
2021/11/10 04:06:58;;;;;;;4.25;3.55;;;8.90;99.90;;;;;;5069558;28;20040;-82
2021/11/10 04:09:24;;;;;;;10.52;5.28;;;8.90;99.90;;;;;;5073095;28;20102;-82
2021/11/10 04:11:49;;;;;;;8.23;5.25;;;9.00;99.90;;;;;;5081112;28;20477;-82
2021/11/10 04:14:15;;;;;;;5.55;3.65;;;8.90;99.90;;;;;;5063984;28;20485;-82
2021/11/10 04:16:41;;;;;;;5.78;3.47;;;8.90;99.90;;;;;;5090355;28;20045;-82
2021/11/10 04:19:07;;;;;;;6.93;4.63;;;9.00;99.90;;;;;;5097337;28;20517;-82
2021/11/10 04:21:33;;;;;;;5.13;3.78;;;9.00;99.90;;;;;;5079185;28;20050;-80
2021/11/10 04:23:59;;;;;;;6.20;3.95;;;9.00;99.90;;;;;;5084440;28;20506;-80
2021/11/10 04:26:30;;;;;;;12.55;6.43;;;9.00;99.90;;;;;;5056066;28;20040;-80
2021/11/10 04:28:56;;;;;;;10.98;4.13;;;9.00;99.90;;;;;;5082662;28;20063;-83
2021/11/10 04:31:23;;;;;;;8.10;5.13;;;9.00;99.90;;;;;;5089203;28;20044;-82
2021/11/10 04:33:50;;;;;;;8.82;5.82;;;9.00;99.90;;;;;;5071710;28;20419;-81
2021/11/10 04:36:18;;;;;;;8.55;5.55;;;8.90;99.90;;;;;;5089759;28;20115;-80
2021/11/10 04:38:44;;;;;;;4.00;3.13;;;9.00;99.90;;;;;;5091167;28;20036;-83
2021/11/10 04:41:11;;;;;;;8.10;5.20;;;9.00;99.90;;;;;;5091035;28;20040;-81
2021/11/10 04:43:37;;;;;;;7.07;3.72;;;9.00;99.90;;;;;;5089899;28;20492;-83
2021/11/10 04:48:37;;;;;;;6.40;4.43;;;9.00;99.90;;;;;;5081938;28;20323;-82
2021/11/10 04:51:04;;;;;;;12.23;5.47;;;9.00;99.90;;;;;;5083325;28;20454;-81
2021/11/10 04:53:30;;;;;;;13.02;4.97;;;9.10;99.90;;;;;;5086886;28;20040;-81
2021/11/10 04:55:56;;;;;;;9.23;5.75;;;9.10;99.90;;;;;;5090154;28;20040;-80
2021/11/10 04:58:21;;;;;;;7.30;3.90;;;9.10;99.90;;;;;;5071004;28;20093;-81
2021/11/10 05:00:47;;;;;;;6.75;3.97;;;9.10;99.90;;;;;;5071332;28;20444;-80
2021/11/10 05:03:13;;;;;;;6.28;4.43;;;9.10;99.90;;;;;;5093324;28;20047;-82
2021/11/10 05:05:39;;;;;;;7.22;5.22;;;9.10;99.90;;;;;;5068162;28;20051;-83
2021/11/10 05:08:05;;;;;;;6.97;3.28;;;9.00;99.90;;;;;;5082118;28;20048;-81
2021/11/10 05:10:30;;;;;;;5.40;2.95;;;9.10;99.90;;;;;;5093915;28;20119;-81
2021/11/10 05:12:56;;;;;;;11.13;4.13;;;9.00;99.90;;;;;;5092346;28;20115;-82
2021/11/10 05:15:22;;;;;;;5.03;4.25;;;9.00;99.90;;;;;;5080301;28;20044;-82
2021/11/10 05:17:48;;;;;;;3.92;3.55;;;9.00;99.90;;;;;;5079676;28;20036;-84
2021/11/10 05:20:13;;;;;;;10.60;5.50;;;9.00;99.90;;;;;;5088376;28;20135;-82
2021/11/10 05:22:40;;;;;;;6.28;4.63;;;9.00;99.90;;;;;;5081146;28;20059;-83
2021/11/10 05:25:08;;;;;;;9.98;4.53;;;9.00;99.90;;;;;;5058512;28;20036;-82
2021/11/10 05:27:34;;;;;;;5.18;4.47;;;9.00;99.90;;;;;;5082067;28;20508;-80
2021/11/10 05:30:00;;;;;;;;;;;9.00;99.90;;;;;;5084125;28;20049;-79
2021/11/10 05:32:26;;;;;;;8.18;3.63;;;9.00;99.90;;;;;;5089545;28;19920;-80
2021/11/10 05:34:52;;;;;;;13.95;5.97;;;9.00;99.90;;;;;;5075863;28;20043;-84
2021/11/10 05:37:18;;;;;;;9.68;3.47;;;9.00;99.90;;;;;;5067483;28;20045;-86
2021/11/10 05:39:44;;;;;;;7.57;4.07;;;9.00;99.90;;;;;;5091645;28;20054;-83
2021/11/10 05:42:09;;;;;;;5.97;4.13;;;8.90;99.90;;;;;;5079694;28;20040;-80
2021/11/10 05:44:35;;;;;;;14.52;5.03;;;8.90;99.90;;;;;;5059099;28;20052;-79
2021/11/10 05:47:01;;;;;;;7.32;3.28;;;8.90;99.90;;;;;;5056621;28;20044;-82
2021/11/10 05:49:27;;;;;;;13.00;6.18;;;8.90;99.90;;;;;;5068993;28;20110;-80
2021/11/10 05:51:52;;;;;;;13.15;4.70;;;8.90;99.90;;;;;;5069114;28;20040;-82
2021/11/10 05:54:18;;;;;;;6.85;3.72;;;9.00;99.90;;;;;;5083231;28;20036;-80
2021/11/10 05:56:46;;;;;;;6.28;4.07;;;9.00;99.90;;;;;;5078732;28;20100;-81
2021/11/10 05:59:12;;;;;;;4.45;3.03;;;8.90;99.90;;;;;;5074316;28;20073;-81
2021/11/10 06:01:38;;;;;;;4.88;3.63;;;9.00;99.90;;;;;;5086986;28;20044;-80
2021/11/10 06:04:04;;;;;;;6.80;3.72;;;9.00;99.90;;;;;;5088029;28;20055;-84
2021/11/10 06:06:30;;;;;;;5.22;3.22;;;9.00;99.90;;;;;;5085963;28;20037;-83
2021/11/10 06:08:55;;;;;;;7.70;4.03;;;9.00;99.90;;;;;;5083576;28;20035;-83
2021/11/10 06:11:21;;;;;;;5.80;2.55;;;9.00;99.90;;;;;;5077915;28;20040;-82
2021/11/10 06:13:47;;;;;;;11.77;4.10;;;9.00;99.90;;;;;;5089802;28;20031;-83
2021/11/10 06:16:13;;;;;;;6.72;3.85;;;9.00;99.90;;;;;;5057719;28;20041;-80
2021/11/10 06:18:39;;;;;;;8.43;3.88;;;9.10;99.90;;;;;;5091508;28;20032;-83
2021/11/10 06:21:05;;;;;;;6.45;4.88;;;9.00;99.90;;;;;;5062578;28;20039;-83
2021/11/10 06:23:31;;;;;;;8.55;4.35;;;9.10;99.90;;;;;;5091721;28;20134;-81
2021/11/10 06:25:57;;;;;;;12.60;4.72;;;9.10;99.90;;;;;;5056146;28;20123;-83
2021/11/10 06:28:23;;;;;;;;;;;9.10;99.90;;;;;;5088825;28;20036;-82
2021/11/10 06:30:49;;;;;;;7.75;3.88;;;9.10;99.90;;;;;;5078936;28;20012;-81
2021/11/10 06:33:15;;;;;;;5.28;3.60;;;9.10;99.90;;;;;;5080071;28;20291;-81
2021/11/10 06:35:40;;;;;;;;;;;9.10;99.90;;;;;;5084127;28;20503;-83
2021/11/10 06:38:06;;;;;;;10.07;3.85;;;9.10;99.90;;;;;;5084930;28;20006;-81
2021/11/10 06:40:32;;;;;;;6.15;4.22;;;9.20;99.90;;;;;;5078160;28;20090;-81
2021/11/10 06:42:58;;;;;;;22.63;4.97;;;9.10;99.90;;;;;;5075031;28;20048;-81
2021/11/10 06:45:24;;;;;;;5.93;3.47;;;9.20;99.90;;;;;;5080314;28;20060;-82
2021/11/10 06:47:50;;;;;;;6.22;3.67;;;9.20;99.90;;;;;;5081171;28;20080;-81
2021/11/10 06:50:16;;;;;;;;;;;9.20;99.90;;;;;;5056130;28;20036;-83
2021/11/10 06:52:42;;;;;;;9.13;3.88;;;9.20;99.90;;;;;;5068615;28;20329;-82
2021/11/10 06:55:08;;;;;;;5.38;4.28;;;9.20;99.90;;;;;;5087231;28;20122;-81
2021/11/10 06:57:35;;;;;;;6.63;3.88;;;9.20;99.90;;;;;;5079485;28;20122;-82
2021/11/10 07:00:02;;;;;;;7.03;4.22;;;9.20;99.90;;;;;;5069908;28;20090;-81
2021/11/10 07:02:28;;;;;;;6.82;4.50;;;9.20;99.90;;;;;;5074405;28;20046;-83
2021/11/10 07:04:53;;;;;;;5.55;3.72;;;9.20;99.90;;;;;;5075040;28;20257;-83
2021/11/10 07:07:19;;;;;;;6.18;3.53;;;9.20;99.90;;;;;;5094152;28;20492;-83
2021/11/10 07:09:46;;;;;;;7.32;4.00;;;9.20;99.90;;;;;;5091876;28;20137;-84
2021/11/10 07:12:12;;;;;;;8.38;4.10;;;9.30;99.90;;;;;;5091896;28;20131;-81
2021/11/10 07:14:39;;;;;;;5.45;4.05;;;9.30;99.90;;;;;;5086918;28;20123;-83
2021/11/10 07:17:04;;;;;;;8.65;4.50;;;9.30;99.90;;;;;;5084635;28;20124;-81
2021/11/10 07:19:30;;;;;;;6.18;4.72;;;9.30;99.90;;;;;;5088015;28;20151;-80
2021/11/10 07:21:56;;;;;;;9.20;4.40;;;9.30;99.90;;;;;;5072501;28;20521;-82
2021/11/10 07:24:24;;;;;;;8.13;4.95;;;9.30;99.90;;;;;;5053584;28;20052;-83
2021/11/10 07:26:50;;;;;;;9.60;4.75;;;9.30;99.90;;;;;;5090696;28;20071;-81
2021/11/10 07:29:16;;;;;;;6.88;5.22;;;9.30;99.90;;;;;;5069819;28;20111;-82
2021/11/10 07:31:41;;;;;;;11.55;5.38;;;9.30;99.90;;;;;;5092387;28;20044;-82
2021/11/10 07:34:07;;;;;;;5.82;4.25;;;9.30;99.90;;;;;;5090613;28;20040;-84
2021/11/10 07:36:33;;;;;;;11.80;4.38;;;9.30;99.90;;;;;;5072806;28;20036;-82
2021/11/10 07:38:59;;;;;;;15.57;5.80;;;9.30;99.90;;;;;;5091683;28;20126;-81
2021/11/10 07:41:29;;;;;;;10.52;5.05;;;9.30;99.90;;;;;;5084257;28;20070;-81
2021/11/10 07:43:55;;;;;;;7.70;5.10;;;9.30;99.90;;;;;;5073051;28;20102;-80
2021/11/10 07:46:24;;;;;;;13.73;7.07;;;9.30;99.90;;;;;;5089930;28;20083;-85
2021/11/10 07:48:50;;;;;;;10.63;5.82;;;9.20;99.90;;;;;;5073961;28;20035;-84
2021/11/10 07:51:17;;;;;;;6.93;4.53;;;9.20;99.90;;;;;;5067897;28;20043;-82
2021/11/10 07:53:44;;;;;;;7.55;4.88;;;9.20;99.90;;;;;;5090370;28;20040;-83
2021/11/10 07:56:10;;;;;;;;;;;9.30;99.90;;;;;;5072648;28;20071;-81
2021/11/10 07:58:38;;;;;;;7.30;4.32;;;9.30;99.90;;;;;;5069515;28;19916;-83
2021/11/10 08:01:04;;;;;;;8.20;4.82;;;9.30;99.90;;;;;;5097176;28;20051;-82
2021/11/10 08:03:31;;;;;;;6.75;5.07;;;9.30;99.90;;;;;;5095924;28;20051;-84
2021/11/10 08:05:57;;;;;;;;;;;9.30;99.90;;;;;;5085585;28;20499;-82
2021/11/10 08:08:23;;;;;;;6.90;4.55;;;9.30;99.90;;;;;;5073827;28;20361;-83
2021/11/10 08:10:54;;;;;;;7.18;4.60;;;9.40;99.90;;;;;;5084794;28;20032;-85
2021/11/10 08:13:20;;;;;;;9.23;5.68;;;9.40;99.90;;;;;;5052021;28;20063;-82
2021/11/10 08:15:46;;;;;;;;;;;9.40;99.90;;;;;;5070642;28;20044;-83
2021/11/10 08:18:12;;;;;;;10.82;6.07;;;9.40;99.90;;;;;;5089920;28;20375;-84
2021/11/10 08:20:38;;;;;;;10.40;5.05;;;9.50;99.90;;;;;;5082923;28;20155;-82
2021/11/10 08:23:04;;;;;;;6.68;4.28;;;9.50;99.90;;;;;;5090915;28;20110;-80
2021/11/10 08:25:30;;;;;;;10.40;5.15;;;9.50;99.90;;;;;;5065248;28;20124;-85
2021/11/10 08:27:56;;;;;;;;;;;9.50;99.90;;;;;;5092620;28;20533;-80
2021/11/10 08:30:22;;;;;;;13.15;3.40;;;9.60;99.90;;;;;;5081061;28;20003;-82
2021/11/10 08:32:50;;;;;;;10.93;4.75;;;9.60;99.90;;;;;;5090933;28;20042;-85
2021/11/10 08:35:16;;;;;;;8.48;5.47;;;9.60;99.90;;;;;;5083218;28;20048;-84
2021/11/10 08:37:42;;;;;;;6.05;2.97;;;9.70;99.90;;;;;;5092507;28;20097;-82
2021/11/10 08:40:10;;;;;;;5.22;3.58;;;9.70;99.90;;;;;;5092665;28;20044;-86
2021/11/10 08:42:37;;;;;;;6.50;4.20;;;9.80;99.90;;;;;;5076597;28;20044;-82
2021/11/10 08:45:06;;;;;;;6.53;3.30;;;9.80;99.90;;;;;;5086523;28;20150;-84
2021/11/10 08:47:32;;;;;;;8.48;5.28;;;9.80;99.90;;;;;;5084789;28;20036;-84
2021/11/10 08:49:59;;;;;;;7.00;3.53;;;9.90;99.90;;;;;;5082228;28;20039;-83
2021/11/10 08:52:27;;;;;;;4.03;2.85;;;9.80;99.90;;;;;;5071980;28;20505;-82
2021/11/10 08:54:53;;;;;;;7.57;3.65;;;9.90;99.90;;;;;;5094962;28;20131;-85
2021/11/10 08:57:19;;;;;;;5.40;2.67;;;9.90;99.90;;;;;;5076940;28;20051;-82
2021/11/10 08:59:45;;;;;;;4.72;3.33;;;10.00;99.90;;;;;;5060755;28;20044;-81
2021/11/10 09:02:11;;;;;;;7.20;3.50;;;10.10;99.90;;;;;;5066728;28;20048;-84
2021/11/10 09:04:37;;;;;;;;;;;10.10;99.90;;;;;;5075752;28;20052;-83
2021/11/10 09:07:03;;;;;;;7.15;2.90;;;10.10;99.90;;;;;;5071608;28;19966;-84
2021/11/10 09:09:29;;;;;;;8.57;4.20;;;10.10;99.90;;;;;;5088492;28;20044;-83
2021/11/10 09:11:54;;;;;;;6.20;3.15;;;10.10;99.90;;;;;;5073694;28;20142;-86
2021/11/10 09:14:22;;;;;;;8.45;3.80;;;10.10;99.90;;;;;;5072971;28;20059;-82
2021/11/10 09:16:47;;;;;;;5.18;3.42;;;10.10;99.90;;;;;;5090426;28;20043;-82
2021/11/10 09:19:13;;;;;;;6.00;3.35;;;10.10;99.90;;;;;;5087926;28;20043;-85
2021/11/10 09:21:39;;;;;;;3.47;3.13;;;10.10;99.90;;;;;;5089264;28;20036;-83
2021/11/10 09:24:06;;;;;;;4.60;3.85;;;10.10;99.90;;;;;;5080499;28;20043;-84
2021/11/10 09:26:32;;;;;;;6.55;3.78;;;10.10;99.90;;;;;;5089721;28;20382;-81
2021/11/10 09:28:58;;;;;;;;;;;10.30;99.90;;;;;;5090044;28;20530;-83
2021/11/10 09:31:24;;;;;;;5.22;3.15;;;10.40;99.90;;;;;;5087284;28;20281;-82
2021/11/10 09:33:54;;;;;;;;;;;10.50;99.90;;;;;;5086106;28;20096;-81
2021/11/10 09:36:20;;;;;;;5.57;3.28;;;10.50;99.90;;;;;;5089539;28;19923;-86
2021/11/10 09:38:46;;;;;;;6.18;2.45;;;10.60;99.90;;;;;;5090122;28;20036;-84
2021/11/10 09:41:12;;;;;;;;;;;10.60;99.90;;;;;;5073430;28;20045;-86
2021/11/10 09:43:40;;;;;;;3.13;2.03;;;10.60;99.90;;;;;;5072553;28;20074;-81
2021/11/10 09:46:07;;;;;;;8.50;3.75;;;10.60;99.90;;;;;;5085391;28;20049;-85
2021/11/10 09:48:34;;;;;;;8.77;3.05;;;10.70;99.90;;;;;;5097327;28;20040;-82
2021/11/10 09:51:00;;;;;;;7.95;3.15;;;10.70;99.90;;;;;;5101754;28;20123;-82
2021/11/10 09:53:26;;;;;;;3.67;3.00;;;10.70;99.90;;;;;;5091425;28;20047;-83
2021/11/10 09:55:54;;;;;;;4.32;2.70;;;10.70;99.90;;;;;;5085780;28;20032;-85
2021/11/10 09:58:21;;;;;;;7.85;3.83;;;10.80;99.90;;;;;;5076294;28;20077;-83
2021/11/10 10:00:50;;;;;;;3.30;3.00;;;10.90;99.90;;;;;;5092615;28;20062;-85
2021/11/10 10:03:17;;;;;;;6.70;3.40;;;10.90;99.90;;;;;;5092766;28;20040;-84
2021/11/10 10:05:47;;;;;;;3.90;3.45;;;10.90;99.90;;;;;;5081665;28;20105;-84
2021/11/10 10:08:15;;;;;;;5.88;3.35;;;10.90;99.90;;;;;;5083422;28;20112;-85
2021/11/10 10:10:45;;;;;;;9.18;3.13;;;11.00;99.90;;;;;;5084013;28;20590;-85
2021/11/10 10:13:12;;;;;;;4.13;2.95;;;11.00;99.90;;;;;;5062825;28;20089;-84
2021/11/10 10:15:42;;;;;;;3.38;3.00;;;11.00;99.90;;;;;;5084873;28;20076;-83
2021/11/10 10:18:19;;;;;;;7.45;4.15;;;11.10;99.90;;;;;;5080261;28;20044;-83
2021/11/10 10:20:50;;;;;;;8.35;2.60;;;11.20;99.90;;;;;;5091840;28;20044;-82
2021/11/10 10:23:18;;;;;;;3.60;2.28;;;11.20;99.90;;;;;;5092513;28;20117;-82
2021/11/10 10:26:08;;;;;;;8.05;3.50;;;11.20;99.90;;;;;;5090973;28;20054;-85
2021/11/10 10:28:41;;;;;;;2.78;2.42;;;11.20;99.90;;;;;;5082210;28;20056;-83
2021/11/10 10:31:10;;;;;;;10.82;2.55;;;11.20;99.90;;;;;;5078927;28;20554;-82
2021/11/10 10:33:38;;;;;;;5.65;3.38;;;11.40;99.90;;;;;;5077880;28;20047;-82
2021/11/10 10:36:09;;;;;;;7.93;3.33;;;11.30;99.90;;;;;;5085391;28;20085;-86
2021/11/10 10:38:42;;;;;;;5.35;2.97;;;11.30;99.90;;;;;;5080516;28;20049;-81
2021/11/10 10:41:09;;;;;;;6.75;4.05;;;11.30;99.90;;;;;;5082431;28;20043;-82
2021/11/10 10:43:41;;;;;;;3.63;2.75;;;11.30;99.90;;;;;;5078804;28;20113;-81
2021/11/10 10:46:09;;;;;;;4.18;3.40;;;11.30;99.90;;;;;;5092393;28;20093;-81
2021/11/10 10:48:35;;;;;;;;;;;11.30;99.90;;;;;;5092916;28;20572;-81
2021/11/10 10:51:19;;;;;;;5.28;3.47;;;11.30;99.90;;;;;;5071154;28;19920;-83
2021/11/10 10:53:50;;;;;;;3.70;2.92;;;11.30;99.90;;;;;;5091219;28;20444;-81
2021/11/10 10:56:34;;;;;;;9.32;3.97;;;11.20;99.90;;;;;;5090536;28;20050;-81
2021/11/10 10:59:04;;;;;;;2.95;2.67;;;11.20;99.90;;;;;;5083127;28;20040;-81
2021/11/10 11:01:40;;;;;;;7.47;3.47;;;11.20;99.90;;;;;;5093216;28;20039;-81
2021/11/10 11:04:12;;;;;;;6.80;3.53;;;11.20;99.90;;;;;;5076189;28;20482;-82
2021/11/10 11:06:50;;;;;;;4.88;3.17;;;11.20;99.90;;;;;;5094415;28;20036;-82
2021/11/10 11:09:19;;;;;;;4.97;3.58;;;11.10;99.90;;;;;;5090313;28;20063;-82
2021/11/10 11:12:05;;;;;;;6.18;3.80;;;11.10;99.90;;;;;;5086476;28;20486;-82
2021/11/10 11:14:45;;;;;;;4.70;2.97;;;11.10;99.90;;;;;;5089099;28;20052;-81
2021/11/10 11:17:35;;;;;;;5.15;2.67;;;11.00;99.90;;;;;;5087400;28;20052;-83
2021/11/10 11:20:06;;;;;;;3.80;3.15;;;10.90;99.90;;;;;;5096486;28;20394;-82
2021/11/10 11:22:52;;;;;;;8.75;4.13;;;10.90;99.90;;;;;;5088409;28;20166;-81
2021/11/10 11:25:23;;;;;;;4.43;3.13;;;10.90;99.90;;;;;;5071745;28;20040;-81
2021/11/10 11:28:09;;;;;;;5.82;3.85;;;11.00;99.90;;;;;;5084012;28;20367;-83
2021/11/10 11:30:57;;;;;;;5.47;4.13;;;11.00;99.90;;;;;;5089367;28;20432;-82
2021/11/10 11:33:26;;;;;;;8.88;4.10;;;11.10;99.90;;;;;;5080175;28;20493;-82
2021/11/10 11:36:00;;;;;;;6.28;3.35;;;11.20;99.90;;;;;;5092822;28;20085;-81
2021/11/10 11:38:31;;;;;;;7.53;4.13;;;11.20;99.90;;;;;;5084831;28;20044;-82
2021/11/10 11:40:59;;;;;;;8.35;3.63;;;11.20;99.90;;;;;;5095345;28;20121;-83
2021/11/10 11:43:28;;;;;;;8.10;2.60;;;11.30;99.90;;;;;;5084263;28;20051;-83
2021/11/10 11:45:56;;;;;;;4.97;3.42;;;11.30;99.90;;;;;;5093292;28;20050;-81
2021/11/10 11:48:25;;;;;;;5.22;3.58;;;11.30;99.90;;;;;;5086769;28;20032;-80
2021/11/10 11:50:54;;;;;;;11.93;4.13;;;11.40;99.90;;;;;;5077557;28;20052;-81
2021/11/10 11:53:20;;;;;;;5.57;3.45;;;11.40;99.90;;;;;;5090844;28;20044;-80
2021/11/10 11:55:55;;;;;;;;;;;11.40;99.90;;;;;;5084444;28;20486;-81
2021/11/10 11:58:24;;;;;;;9.05;3.00;;;11.40;99.90;;;;;;5085861;28;19994;-81
2021/11/10 12:01:09;;;;;;;7.35;3.40;;;11.40;99.90;;;;;;5082013;28;20489;-80
2021/11/10 12:03:37;;;;;;;5.82;2.85;;;11.40;99.90;;;;;;5089120;28;20044;-81
2021/11/10 12:06:03;;;;;;;5.20;3.67;;;11.40;99.90;;;;;;5065509;28;20035;-81
2021/11/10 12:08:44;;;;;;;6.53;3.50;;;11.40;99.90;;;;;;5056941;28;20040;-83
2021/11/10 12:11:16;;;;;;;2.85;2.58;;;11.40;99.90;;;;;;5079684;28;20048;-80
2021/11/10 12:14:07;;;;;;;3.40;2.75;;;11.40;99.90;;;;;;5097454;28;20062;-80
2021/11/10 12:16:51;;;;;;;12.38;4.65;;;11.40;99.90;;;;;;5062355;28;20032;-83
2021/11/10 12:19:33;;;;;;;10.52;5.07;;;11.50;99.90;;;;;;5088686;28;20052;-81
2021/11/10 12:22:02;;;;;;;12.25;5.53;;;11.50;99.90;;;;;;5086207;28;20040;-81
2021/11/10 12:24:40;;;;;;;8.43;4.30;;;11.40;99.90;;;;;;5096865;28;20493;-82
2021/11/10 12:27:08;;;;;;;14.55;4.43;;;11.40;99.90;;;;;;5097634;28;20043;-82
2021/11/10 12:29:54;;;;;;;5.57;3.20;;;11.40;99.90;;;;;;5086784;28;20089;-81
2021/11/10 12:32:22;;;;;;;15.13;3.40;;;11.30;99.90;;;;;;5083453;28;20050;-82
2021/11/10 12:34:55;;;;;;;6.25;3.35;;;11.40;99.90;;;;;;5100099;28;20048;-82
2021/11/10 12:37:39;;;;;;;5.20;4.03;;;11.40;99.90;;;;;;5091314;28;20394;-83
2021/11/10 12:40:07;;;;;;;6.55;3.60;;;11.30;99.90;;;;;;5095778;28;20047;-82
2021/11/10 12:42:55;;;;;;;10.95;4.57;;;11.30;99.90;;;;;;5090142;28;20472;-81
2021/11/10 12:45:36;;;;;;;5.22;4.20;;;11.30;99.90;;;;;;5093859;28;20044;-82
2021/11/10 12:48:26;;;;;;;9.10;4.00;;;11.30;99.90;;;;;;5101858;28;20040;-81
2021/11/10 12:50:53;;;;;;;5.25;4.40;;;11.30;99.90;;;;;;5091233;28;20075;-83
2021/11/10 12:53:38;;;;;;;5.43;3.28;;;11.40;99.90;;;;;;5102695;28;20047;-81
2021/11/10 12:56:05;;;;;;;6.53;4.53;;;11.30;99.90;;;;;;5081933;28;20075;-81
2021/11/10 12:58:32;;;;;;;3.63;3.00;;;11.30;99.90;;;;;;5083078;28;20374;-82
2021/11/10 13:01:14;;;;;;;4.43;2.55;;;11.30;99.90;;;;;;5081953;28;20046;-83
2021/11/10 13:03:41;;;;;;;6.30;3.45;;;11.20;99.90;;;;;;5106435;28;20457;-81
2021/11/10 13:06:25;;;;;;;9.20;3.10;;;11.20;99.90;;;;;;5101438;28;20101;-83